createdAt,value
2023-01-12T00:02:02.410Z,1.40
2023-01-12T00:04:31.204Z,1.17
2023-01-12T00:07:04.440Z,1.20
2023-01-12T00:09:31.564Z,1.83
2023-01-12T00:11:58.886Z,1.00
2023-01-12T00:14:26.094Z,1.20
2023-01-12T00:16:53.093Z,1.83
2023-01-12T00:19:22.792Z,1.13
2023-01-12T00:21:57.385Z,1.10
2023-01-12T00:24:34.690Z,1.20
2023-01-12T00:27:08.237Z,1.13
2023-01-12T00:29:36.996Z,1.57
2023-01-12T00:32:06.519Z,1.43
2023-01-12T00:34:34.044Z,1.43
2023-01-12T00:37:02.273Z,1.30
2023-01-12T00:39:29.908Z,1.00
2023-01-12T00:42:15.393Z,0.87
2023-01-12T00:45:00.858Z,0.90
2023-01-12T00:47:28.035Z,1.23
2023-01-12T00:49:55.082Z,1.33
2023-01-12T00:52:30.275Z,0.90
2023-01-12T00:55:00.385Z,1.13
2023-01-12T00:57:28.494Z,0.80
2023-01-12T00:59:59.424Z,1.57
2023-01-12T01:02:28.330Z,2.50
2023-01-12T01:04:56.308Z,1.67
2023-01-12T01:07:24.077Z,1.00
2023-01-12T01:09:51.371Z,1.37
2023-01-12T01:12:18.933Z,1.40
2023-01-12T01:14:47.710Z,1.43
2023-01-12T01:17:15.314Z,1.13
2023-01-12T01:19:43.666Z,1.47
2023-01-12T01:22:13.042Z,1.20
2023-01-12T01:24:41.797Z,1.20
2023-01-12T01:27:08.821Z,1.00
2023-01-12T01:29:36.154Z,0.87
2023-01-12T01:32:03.511Z,0.80
2023-01-12T01:34:30.585Z,1.10
2023-01-12T01:36:57.687Z,0.73
2023-01-12T01:39:25.219Z,0.87
2023-01-12T01:41:52.513Z,1.57
2023-01-12T01:44:31.736Z,0.80
2023-01-12T01:47:08.431Z,1.13
2023-01-12T01:49:46.739Z,1.77
2023-01-12T01:52:35.186Z,0.80
2023-01-12T01:55:13.311Z,1.27
2023-01-12T01:57:47.388Z,0.90
2023-01-12T02:00:15.347Z,1.23
2023-01-12T02:02:44.560Z,1.00
2023-01-12T02:05:14.401Z,0.80
2023-01-12T02:07:41.805Z,1.03
2023-01-12T02:10:09.989Z,1.33
2023-01-12T02:12:55.592Z,0.87
2023-01-12T02:15:45.687Z,1.10
2023-01-12T02:18:31.379Z,0.70
2023-01-12T02:21:49.354Z,1.00
2023-01-12T02:25:12.979Z,1.40
2023-01-12T02:28:27.846Z,1.27
2023-01-12T02:31:42.444Z,0.90
2023-01-12T02:34:30.955Z,1.77
2023-01-12T02:37:23.789Z,0.90
2023-01-12T02:40:02.482Z,1.77
2023-01-12T02:43:00.928Z,1.00
2023-01-12T02:45:57.507Z,1.17
2023-01-12T02:48:44.146Z,0.67
2023-01-12T02:51:43.310Z,0.80
2023-01-12T02:54:16.583Z,1.17
2023-01-12T02:56:52.226Z,1.53
2023-01-12T02:59:27.444Z,1.30
2023-01-12T03:02:00.746Z,0.97
2023-01-12T03:04:30.135Z,1.33
2023-01-12T03:06:57.179Z,1.20
2023-01-12T03:09:42.371Z,1.23
2023-01-12T03:12:26.042Z,1.23
2023-01-12T03:14:54.373Z,0.90
2023-01-12T03:17:31.233Z,1.63
2023-01-12T03:20:16.618Z,1.10
2023-01-12T03:22:45.718Z,1.00
2023-01-12T03:25:18.103Z,1.07
2023-01-12T03:27:51.990Z,1.13
2023-01-12T03:30:55.918Z,1.47
2023-01-12T03:33:24.693Z,0.90
2023-01-12T03:36:40.186Z,0.90
2023-01-12T03:39:58.891Z,1.00
2023-01-12T03:42:32.179Z,1.10
2023-01-12T03:45:18.284Z,1.17
2023-01-12T03:47:50.335Z,1.37
2023-01-12T03:50:27.467Z,0.87
2023-01-12T03:52:56.879Z,1.03
2023-01-12T03:55:26.633Z,1.13
2023-01-12T03:57:54.886Z,1.10
2023-01-12T04:00:24.986Z,0.80
2023-01-12T04:03:13.490Z,2.20
2023-01-12T04:05:42.380Z,0.90
2023-01-12T04:08:15.079Z,0.90
2023-01-12T04:10:42.573Z,0.90
2023-01-12T04:13:09.635Z,1.20
2023-01-12T04:15:38.454Z,1.10
2023-01-12T04:18:05.935Z,1.00
2023-01-12T04:20:33.169Z,1.10
2023-01-12T04:23:00.254Z,1.10
2023-01-12T04:25:27.881Z,1.13
2023-01-12T04:28:01.695Z,1.40
2023-01-12T04:30:31.851Z,0.90
2023-01-12T04:33:00.546Z,1.00
2023-01-12T04:35:27.956Z,1.93
2023-01-12T04:37:55.099Z,1.20
2023-01-12T04:40:22.141Z,1.07
2023-01-12T04:43:07.372Z,1.20
2023-01-12T04:45:39.996Z,1.10
2023-01-12T04:48:13.129Z,1.07
2023-01-12T04:50:41.475Z,0.90
2023-01-12T04:53:11.224Z,1.90
2023-01-12T04:55:40.684Z,1.20
2023-01-12T04:58:08.331Z,1.03
2023-01-12T05:00:36.242Z,1.27
2023-01-12T05:03:03.656Z,0.90
2023-01-12T05:05:33.007Z,1.10
2023-01-12T05:08:20.927Z,0.80
2023-01-12T05:10:53.310Z,0.90
2023-01-12T05:13:21.202Z,1.00
2023-01-12T05:15:48.361Z,0.90
2023-01-12T05:18:16.007Z,1.40
2023-01-12T05:20:43.108Z,1.00
2023-01-12T05:23:10.263Z,2.43
2023-01-12T05:25:37.423Z,1.57
2023-01-12T05:28:04.840Z,1.20
2023-01-12T05:30:32.238Z,1.37
2023-01-12T05:32:59.678Z,1.40
2023-01-12T05:35:26.746Z,1.73
2023-01-12T05:37:56.696Z,1.30
2023-01-12T05:40:24.637Z,3.57
2023-01-12T05:43:11.031Z,0.93
2023-01-12T05:45:38.313Z,0.97
2023-01-12T05:48:06.093Z,1.30
2023-01-12T05:50:33.226Z,1.20
2023-01-12T05:53:10.558Z,1.30
2023-01-12T05:55:38.393Z,2.50
2023-01-12T05:58:05.789Z,0.90
2023-01-12T06:00:33.161Z,1.37
2023-01-12T06:03:02.181Z,1.00
2023-01-12T06:05:29.345Z,1.43
2023-01-12T06:07:56.398Z,1.63
2023-01-12T06:10:23.549Z,1.50
2023-01-12T06:13:09.597Z,1.67
2023-01-12T06:15:36.715Z,1.00
2023-01-12T06:18:04.247Z,1.10
2023-01-12T06:20:31.888Z,0.97
2023-01-12T06:23:03.710Z,1.20
2023-01-12T06:25:32.066Z,0.90
2023-01-12T06:27:59.260Z,0.90
2023-01-12T06:30:26.435Z,1.27
2023-01-12T06:32:53.552Z,1.80
2023-01-12T06:35:20.606Z,1.80
2023-01-12T06:37:47.755Z,1.40
2023-01-12T06:40:15.798Z,0.97
2023-01-12T06:42:43.076Z,1.47
2023-01-12T06:45:10.911Z,1.20
2023-01-12T06:47:52.202Z,1.07
2023-01-12T06:50:19.430Z,1.23
2023-01-12T06:52:46.600Z,1.27
2023-01-12T06:55:13.730Z,1.50
2023-01-12T06:57:40.878Z,1.50
2023-01-12T07:00:09.528Z,1.13
2023-01-12T07:02:36.650Z,1.00
2023-01-12T07:05:04.048Z,0.80
2023-01-12T07:07:31.146Z,1.10
2023-01-12T07:09:58.161Z,1.20
2023-01-12T07:12:25.844Z,1.40
2023-01-12T07:14:52.922Z,1.10
2023-01-12T07:17:19.958Z,2.40
2023-01-12T07:19:47.057Z,1.50
2023-01-12T07:22:14.147Z,1.00
2023-01-12T07:24:41.171Z,1.60
2023-01-12T07:27:08.257Z,1.23
2023-01-12T07:29:35.311Z,1.27
2023-01-12T07:32:02.419Z,1.27
2023-01-12T07:34:30.043Z,1.20
2023-01-12T07:36:57.749Z,1.50
2023-01-12T07:39:24.828Z,0.90
2023-01-12T07:42:10.675Z,1.27
2023-01-12T07:44:37.877Z,1.00
2023-01-12T07:47:05.016Z,1.00
2023-01-12T07:49:32.310Z,1.53
2023-01-12T07:51:59.554Z,0.80
2023-01-12T07:54:26.966Z,1.10
2023-01-12T07:56:54.020Z,1.37
2023-01-12T07:59:21.224Z,1.23
2023-01-12T08:01:48.667Z,1.17
2023-01-12T08:04:15.958Z,1.63
2023-01-12T08:06:43.044Z,1.60
2023-01-12T08:09:10.189Z,1.20
2023-01-12T08:11:38.490Z,1.50
2023-01-12T08:14:06.060Z,1.57
2023-01-12T08:16:40.857Z,2.03
2023-01-12T08:19:16.222Z,2.53
2023-01-12T08:21:50.608Z,1.20
2023-01-12T08:24:22.640Z,0.90
2023-01-12T08:26:53.011Z,0.87
2023-01-12T08:29:32.862Z,1.20
2023-01-12T08:34:35.954Z,1.23
2023-01-12T08:37:08.704Z,1.77
2023-01-12T08:39:36.637Z,1.77
2023-01-12T08:42:04.493Z,1.30
2023-01-12T08:44:35.734Z,1.40
2023-01-12T08:47:05.567Z,0.90
2023-01-12T08:49:34.043Z,1.13
2023-01-12T08:52:01.142Z,1.47
2023-01-12T08:54:28.405Z,1.43
2023-01-12T08:56:55.513Z,1.10
2023-01-12T08:59:22.693Z,1.40
2023-01-12T09:01:50.037Z,1.00
2023-01-12T09:04:17.537Z,1.07
2023-01-12T09:06:46.768Z,1.00
2023-01-12T09:09:18.142Z,0.87
2023-01-12T09:11:46.063Z,0.90
2023-01-12T09:14:14.832Z,1.00
2023-01-12T09:16:42.909Z,1.53
2023-01-12T09:19:10.451Z,0.80
2023-01-12T09:21:40.253Z,1.50
2023-01-12T09:24:07.965Z,1.00
2023-01-12T09:26:44.414Z,1.00
2023-01-12T09:29:13.084Z,1.13
2023-01-12T09:31:43.711Z,1.30
2023-01-12T09:34:10.975Z,1.80
2023-01-12T09:36:39.960Z,2.03
2023-01-12T09:39:10.372Z,1.50
2023-01-12T09:42:06.839Z,1.17
2023-01-12T09:45:03.600Z,1.00
2023-01-12T09:47:40.859Z,1.03
2023-01-12T09:50:26.087Z,1.00
2023-01-12T09:53:20.050Z,0.80
2023-01-12T09:56:02.659Z,1.07
2023-01-12T09:58:57.975Z,0.83
2023-01-12T10:01:29.786Z,0.97
2023-01-12T10:04:00.345Z,1.00
2023-01-12T10:06:28.019Z,0.90
2023-01-12T10:09:01.295Z,0.90
2023-01-12T10:12:02.547Z,1.00
2023-01-12T10:14:32.728Z,0.70
2023-01-12T10:17:15.266Z,1.00
2023-01-12T10:20:01.721Z,2.07
2023-01-12T10:22:37.924Z,1.13
2023-01-12T10:25:09.018Z,0.80
2023-01-12T10:27:42.344Z,0.90
2023-01-12T10:30:18.867Z,1.00
2023-01-12T10:32:46.594Z,0.93
2023-01-12T10:35:21.359Z,0.80
2023-01-12T10:37:54.220Z,1.00
2023-01-12T10:40:24.186Z,1.00
2023-01-12T10:43:21.722Z,1.13
2023-01-12T10:46:15.905Z,1.30
2023-01-12T10:48:49.381Z,2.30
2023-01-12T10:51:35.769Z,1.20
2023-01-12T10:54:11.255Z,0.80
2023-01-12T10:56:53.235Z,1.07
2023-01-12T10:59:26.516Z,0.83
2023-01-12T11:02:14.719Z,0.90
2023-01-12T11:04:49.633Z,0.90
2023-01-12T11:07:27.100Z,1.07
2023-01-12T11:09:57.594Z,0.90
2023-01-12T11:12:28.139Z,0.87
2023-01-12T11:15:12.545Z,1.07
2023-01-12T11:17:52.189Z,0.93
2023-01-12T11:20:25.207Z,0.80
2023-01-12T11:23:00.719Z,0.80
2023-01-12T11:25:38.438Z,0.93
2023-01-12T11:28:23.949Z,0.60
2023-01-12T11:31:24.115Z,1.23
2023-01-12T11:34:00.301Z,1.00
2023-01-12T11:36:41.947Z,0.90
2023-01-12T11:39:16.541Z,0.80
2023-01-12T11:42:07.038Z,1.10
2023-01-12T11:44:52.234Z,1.77
2023-01-12T11:47:27.629Z,1.30
2023-01-12T11:50:29.513Z,0.80
2023-01-12T11:52:58.071Z,0.80
2023-01-12T11:56:06.134Z,0.90
2023-01-12T11:59:04.859Z,0.97
2023-01-12T12:02:03.075Z,0.90
2023-01-12T12:05:04.462Z,0.93
2023-01-12T12:08:21.556Z,0.87
2023-01-12T12:11:01.982Z,0.60
2023-01-12T12:13:44.876Z,0.80
2023-01-12T12:16:53.492Z,0.90
2023-01-12T12:19:34.403Z,0.90
2023-01-12T12:22:38.425Z,0.50
2023-01-12T12:25:47.504Z,0.80
2023-01-12T12:28:47.013Z,0.63
2023-01-12T12:31:47.956Z,0.70
2023-01-12T12:34:47.127Z,0.70
2023-01-12T12:37:32.300Z,1.03
2023-01-12T12:40:59.860Z,0.50
2023-01-12T12:43:52.051Z,0.50
2023-01-12T12:46:58.531Z,0.90
2023-01-12T12:49:30.398Z,1.00
2023-01-12T12:51:59.296Z,0.70
2023-01-12T12:54:27.927Z,0.90
2023-01-12T12:56:55.985Z,0.50
2023-01-12T12:59:32.214Z,0.50
2023-01-12T13:02:03.580Z,0.60
2023-01-12T13:04:42.915Z,0.60
2023-01-12T13:07:20.451Z,0.60
2023-01-12T13:09:49.531Z,0.70
2023-01-12T13:12:34.256Z,0.77
2023-01-12T13:15:37.014Z,0.70
2023-01-12T13:18:05.805Z,0.90
2023-01-12T13:20:54.608Z,0.70
2023-01-12T13:23:46.790Z,0.40
2023-01-12T13:26:40.886Z,0.70
2023-01-12T13:29:26.830Z,0.50
2023-01-12T13:32:23.218Z,0.53
2023-01-12T13:34:53.287Z,0.53
2023-01-12T13:38:13.326Z,0.50
2023-01-12T13:40:41.085Z,0.53
2023-01-12T13:43:38.928Z,0.70
2023-01-12T13:46:24.387Z,0.77
2023-01-12T13:48:55.186Z,0.60
2023-01-12T13:51:51.917Z,0.50
2023-01-12T13:54:19.048Z,0.60
2023-01-12T13:57:01.294Z,0.60
2023-01-12T13:59:30.089Z,0.60
2023-01-12T14:01:58.183Z,0.70
2023-01-12T14:04:59.653Z,0.50
2023-01-12T14:08:12.327Z,0.70
2023-01-12T14:11:27.920Z,0.50
2023-01-12T14:13:57.927Z,0.53
2023-01-12T14:17:05.201Z,0.47
2023-01-12T14:19:31.929Z,0.50
2023-01-12T14:22:02.819Z,0.53
2023-01-12T14:24:30.212Z,0.50
2023-01-12T14:26:58.615Z,0.60
2023-01-12T14:29:25.860Z,0.60
2023-01-12T14:31:54.154Z,0.50
2023-01-12T14:34:34.748Z,0.50
2023-01-12T14:37:05.741Z,2.83
2023-01-12T14:39:41.262Z,0.50
2023-01-12T14:42:36.997Z,0.40
2023-01-12T14:45:42.598Z,0.50
2023-01-12T14:48:32.402Z,0.70
2023-01-12T14:51:39.104Z,0.43
2023-01-12T14:54:09.326Z,0.47
2023-01-12T14:56:47.872Z,0.70
2023-01-12T14:59:23.790Z,0.50
2023-01-12T15:01:53.158Z,0.40
2023-01-12T15:04:25.637Z,0.50
2023-01-12T15:07:05.624Z,0.50
2023-01-12T15:09:37.166Z,0.70
2023-01-12T15:12:39.312Z,0.47
2023-01-12T15:15:22.673Z,0.60
2023-01-12T15:18:11.504Z,0.40
2023-01-12T15:21:06.459Z,0.47
2023-01-12T15:23:54.759Z,0.50
2023-01-12T15:26:22.318Z,0.50
2023-01-12T15:28:50.066Z,0.40
2023-01-12T15:31:38.314Z,0.50
2023-01-12T15:34:06.668Z,0.60
2023-01-12T15:36:33.791Z,0.60
2023-01-12T15:39:00.867Z,0.60
2023-01-12T15:41:50.126Z,0.50
2023-01-12T15:44:20.274Z,0.70
2023-01-12T15:46:48.163Z,0.50
2023-01-12T15:49:15.978Z,0.60
2023-01-12T15:51:47.627Z,0.50
2023-01-12T15:54:18.089Z,0.70
2023-01-12T15:56:45.989Z,0.60
2023-01-12T15:59:13.063Z,0.70
2023-01-12T16:01:48.982Z,0.60
2023-01-12T16:04:42.261Z,0.60
2023-01-12T16:07:05.423Z,0.60
2023-01-12T16:09:32.539Z,0.60
2023-01-12T16:11:59.587Z,0.50
2023-01-12T16:14:26.674Z,0.80
2023-01-12T16:16:54.003Z,0.60
2023-01-12T16:19:22.433Z,0.50
2023-01-12T16:21:49.652Z,0.50
2023-01-12T16:24:16.786Z,0.50
2023-01-12T16:26:44.746Z,0.70
2023-01-12T16:29:11.882Z,0.70
2023-01-12T16:31:39.699Z,0.60
2023-01-12T16:34:06.927Z,0.77
2023-01-12T16:36:34.668Z,0.70
2023-01-12T16:39:01.885Z,0.70
2023-01-12T16:41:29.061Z,0.60
2023-01-12T16:43:58.798Z,0.63
2023-01-12T16:46:25.901Z,0.50
2023-01-12T16:48:55.493Z,0.60
2023-01-12T16:51:23.065Z,0.60
2023-01-12T16:53:51.565Z,0.80
2023-01-12T16:56:18.618Z,0.60
2023-01-12T16:58:48.568Z,0.60
2023-01-12T17:01:21.195Z,0.70
2023-01-12T17:03:50.866Z,0.60
2023-01-12T17:06:20.918Z,0.60
2023-01-12T17:08:49.209Z,0.50
2023-01-12T17:11:23.844Z,0.60
2023-01-12T17:13:54.265Z,0.60
2023-01-12T17:16:24.533Z,0.83
2023-01-12T17:18:52.700Z,0.80
2023-01-12T17:21:20.973Z,0.70
2023-01-12T17:23:48.319Z,0.50
2023-01-12T17:26:18.859Z,0.60
2023-01-12T17:28:47.342Z,0.70
2023-01-12T17:31:20.416Z,0.50
2023-01-12T17:33:47.739Z,0.60
2023-01-12T17:36:14.929Z,0.60
2023-01-12T17:38:42.055Z,0.60
2023-01-12T17:41:35.271Z,0.60
2023-01-12T17:44:05.383Z,0.60
2023-01-12T17:46:33.704Z,0.60
2023-01-12T17:49:03.715Z,0.60
2023-01-12T17:51:30.824Z,0.60
2023-01-12T17:54:00.366Z,0.63
2023-01-12T17:56:31.356Z,0.70
2023-01-12T17:58:58.709Z,0.63
2023-01-12T18:01:31.998Z,0.57
2023-01-12T18:04:00.738Z,0.53
2023-01-12T18:06:28.661Z,0.60
2023-01-12T18:08:59.593Z,0.70
2023-01-12T18:11:28.179Z,0.50
2023-01-12T18:13:56.468Z,0.60
2023-01-12T18:16:24.451Z,0.50
2023-01-12T18:18:52.622Z,0.60
2023-01-12T18:21:24.796Z,0.60
2023-01-12T18:23:53.520Z,0.60
2023-01-12T18:26:25.763Z,0.60
2023-01-12T18:28:55.174Z,0.70
2023-01-12T18:31:26.638Z,0.70
2023-01-12T18:34:02.891Z,0.70
2023-01-12T18:36:30.419Z,0.70
2023-01-12T18:38:57.613Z,1.10
2023-01-12T18:41:43.707Z,0.60
2023-01-12T18:44:11.094Z,0.50
2023-01-12T18:47:02.121Z,0.50
2023-01-12T18:49:33.738Z,0.50
2023-01-12T18:52:20.716Z,0.80
2023-01-12T18:54:48.250Z,1.03
2023-01-12T18:57:19.879Z,0.60
2023-01-12T18:59:48.807Z,0.60
2023-01-12T19:02:18.635Z,0.80
2023-01-12T19:04:52.069Z,0.60
2023-01-12T19:07:43.735Z,0.70
2023-01-12T19:10:11.169Z,0.60
2023-01-12T19:12:38.260Z,0.70
2023-01-12T19:15:24.823Z,0.70
2023-01-12T19:17:52.088Z,0.70
2023-01-12T19:20:21.171Z,0.60
2023-01-12T19:23:06.675Z,0.80
2023-01-12T19:25:51.988Z,0.77
2023-01-12T19:28:38.099Z,0.60
2023-01-12T19:31:10.091Z,0.70
2023-01-12T19:33:39.239Z,0.50
2023-01-12T19:36:15.634Z,0.77
2023-01-12T19:38:44.442Z,0.60
2023-01-12T19:41:34.444Z,0.50
2023-01-12T19:44:05.413Z,0.50
2023-01-12T19:46:33.447Z,0.57
2023-01-12T19:49:00.520Z,0.57
2023-01-12T19:51:27.893Z,0.50
2023-01-12T19:53:55.843Z,0.50
2023-01-12T19:56:23.043Z,0.50
2023-01-12T19:58:51.806Z,0.40
2023-01-12T20:01:23.612Z,0.50
2023-01-12T20:03:51.478Z,0.60
2023-01-12T20:06:18.741Z,0.50
2023-01-12T20:08:46.287Z,0.50
2023-01-12T20:11:13.469Z,0.40
2023-01-12T20:13:40.590Z,0.40
2023-01-12T20:16:10.467Z,0.50
2023-01-12T20:18:38.062Z,0.50
2023-01-12T20:21:11.304Z,0.40
2023-01-12T20:23:38.549Z,0.47
2023-01-12T20:26:11.346Z,0.50
2023-01-12T20:28:38.807Z,0.50
2023-01-12T20:31:15.989Z,0.43
2023-01-12T20:33:43.525Z,0.40
2023-01-12T20:36:13.925Z,0.50
2023-01-12T20:38:41.834Z,0.50
2023-01-12T20:41:10.691Z,0.50
2023-01-12T20:43:38.633Z,0.50
2023-01-12T20:46:11.772Z,0.47
2023-01-12T20:48:43.328Z,0.50
2023-01-12T20:51:13.121Z,0.50
2023-01-12T20:53:40.434Z,0.40
2023-01-12T20:56:08.432Z,0.50
2023-01-12T20:58:36.638Z,0.40
2023-01-12T21:01:12.412Z,0.50
2023-01-12T21:03:40.296Z,0.40
2023-01-12T21:06:14.568Z,0.40
2023-01-12T21:08:43.674Z,0.50
2023-01-12T21:11:18.945Z,0.40
2023-01-12T21:13:46.688Z,0.50
2023-01-12T21:16:18.064Z,0.47
2023-01-12T21:18:46.117Z,0.50
2023-01-12T21:21:13.450Z,0.50
2023-01-12T21:23:40.827Z,0.50
2023-01-12T21:26:10.191Z,0.50
2023-01-12T21:28:39.350Z,0.43
2023-01-12T21:31:08.998Z,0.50
2023-01-12T21:33:36.261Z,0.50
2023-01-12T21:36:03.698Z,0.50
2023-01-12T21:38:31.167Z,0.40
2023-01-12T21:41:03.479Z,0.40
2023-01-12T21:43:31.734Z,0.50
2023-01-12T21:46:07.102Z,0.40
2023-01-12T21:48:35.234Z,0.50
2023-01-12T21:51:05.765Z,0.50
2023-01-12T21:53:33.576Z,0.50
2023-01-12T21:56:05.028Z,0.40
2023-01-12T21:58:36.177Z,0.50
2023-01-12T22:01:13.520Z,0.40
2023-01-12T22:03:41.612Z,0.40
2023-01-12T22:06:13.530Z,0.50
2023-01-12T22:08:42.591Z,0.50
2023-01-12T22:11:14.893Z,0.40
2023-01-12T22:13:43.722Z,0.40
2023-01-12T22:16:14.949Z,0.50
2023-01-12T22:18:49.397Z,0.40
2023-01-12T22:21:18.953Z,0.40
2023-01-12T22:23:46.533Z,0.40
2023-01-12T22:26:16.031Z,0.50
2023-01-12T22:28:45.176Z,0.50
2023-01-12T22:31:22.016Z,0.57
2023-01-12T22:33:58.724Z,0.50
2023-01-12T22:36:25.862Z,0.67
2023-01-12T22:38:52.986Z,0.40
2023-01-12T22:41:22.279Z,0.50
2023-01-12T22:43:49.907Z,0.40
2023-01-12T22:46:23.340Z,0.40
2023-01-12T22:48:56.521Z,0.40
2023-01-12T22:51:25.981Z,0.40
2023-01-12T22:53:55.522Z,0.40
2023-01-12T22:56:23.034Z,0.40
2023-01-12T22:58:53.321Z,0.40
2023-01-12T23:01:23.527Z,0.40
2023-01-12T23:03:57.179Z,0.40
2023-01-12T23:06:25.899Z,0.40
2023-01-12T23:08:53.430Z,0.50
2023-01-12T23:11:24.886Z,0.40
2023-01-12T23:13:52.653Z,0.40
2023-01-12T23:16:20.277Z,0.43
2023-01-12T23:18:48.026Z,0.50
2023-01-12T23:21:21.912Z,0.53
2023-01-12T23:23:56.829Z,0.43
2023-01-12T23:26:31.094Z,0.40
2023-01-12T23:29:00.477Z,0.50
2023-01-12T23:31:31.048Z,0.70
2023-01-12T23:33:58.519Z,0.43
2023-01-12T23:36:28.366Z,0.60
2023-01-12T23:38:59.550Z,0.40
2023-01-12T23:41:33.880Z,0.40
2023-01-12T23:44:03.986Z,0.43
2023-01-12T23:46:35.730Z,0.50
2023-01-12T23:49:03.189Z,0.80
2023-01-12T23:51:31.418Z,0.40
2023-01-12T23:54:05.164Z,0.40
2023-01-12T23:56:36.296Z,0.60
2023-01-12T23:59:06.461Z,0.50
